createdAt,value
2023-05-18T00:01:33.354Z,19.80
2023-05-18T00:04:03.119Z,19.98
2023-05-18T00:06:32.433Z,19.05
2023-05-18T00:09:01.804Z,19.58
2023-05-18T00:11:31.421Z,18.10
2023-05-18T00:14:00.741Z,18.92
2023-05-18T00:16:30.146Z,18.25
2023-05-18T00:19:00.469Z,18.83
2023-05-18T00:21:31.657Z,19.35
2023-05-18T00:24:01.099Z,19.27
2023-05-18T00:26:30.500Z,18.27
2023-05-18T00:28:59.797Z,18.85
2023-05-18T00:31:29.205Z,17.27
2023-05-18T00:33:59.200Z,18.65
2023-05-18T00:36:28.618Z,18.75
2023-05-18T00:38:58.069Z,17.75
2023-05-18T00:41:29.104Z,19.02
2023-05-18T00:43:59.416Z,19.85
2023-05-18T00:46:30.148Z,21.50
2023-05-18T00:49:00.295Z,20.17
2023-05-18T00:51:30.372Z,17.95
2023-05-18T00:54:01.638Z,17.50
2023-05-18T00:56:35.257Z,16.55
2023-05-18T00:59:05.776Z,16.88
2023-05-18T01:01:37.185Z,18.50
2023-05-18T01:04:06.771Z,15.63
2023-05-18T01:06:42.204Z,18.83
2023-05-18T01:09:14.578Z,22.00
2023-05-18T01:12:02.477Z,15.75
2023-05-18T01:15:00.211Z,14.27
2023-05-18T01:17:44.665Z,14.50
2023-05-18T01:20:43.386Z,15.15
2023-05-18T01:23:24.837Z,14.63
2023-05-18T01:25:57.287Z,13.57
2023-05-18T01:28:33.728Z,16.38
2023-05-18T01:31:04.143Z,15.82
2023-05-18T01:33:33.726Z,14.32
2023-05-18T01:36:03.383Z,15.75
2023-05-18T01:38:33.570Z,15.65
2023-05-18T01:41:27.613Z,13.40
2023-05-18T01:44:14.149Z,13.98
2023-05-18T01:47:11.194Z,12.98
2023-05-18T01:50:00.202Z,13.15
2023-05-18T01:52:59.468Z,12.50
2023-05-18T01:55:36.240Z,13.45
2023-05-18T01:58:09.425Z,13.88
2023-05-18T02:00:39.364Z,13.00
2023-05-18T02:03:09.161Z,12.35
2023-05-18T02:05:38.605Z,13.32
2023-05-18T02:08:08.409Z,12.85
2023-05-18T02:10:37.822Z,14.10
2023-05-18T02:13:07.382Z,12.52
2023-05-18T02:15:36.836Z,12.20
2023-05-18T02:18:12.321Z,11.82
2023-05-18T02:20:50.416Z,12.43
2023-05-18T02:23:20.904Z,12.18
2023-05-18T02:25:54.924Z,11.65
2023-05-18T02:28:30.151Z,11.15
2023-05-18T02:31:16.045Z,11.55
2023-05-18T02:33:50.461Z,11.13
2023-05-18T02:36:26.440Z,12.13
2023-05-18T02:39:01.329Z,10.30
2023-05-18T02:41:35.593Z,11.57
2023-05-18T02:44:11.638Z,10.93
2023-05-18T02:46:46.045Z,11.63
2023-05-18T02:49:15.373Z,11.75
2023-05-18T02:51:44.787Z,11.57
2023-05-18T02:54:14.133Z,9.90
2023-05-18T02:56:43.558Z,10.57
2023-05-18T02:59:12.741Z,11.52
2023-05-18T03:01:42.179Z,9.48
2023-05-18T03:04:11.514Z,10.90
2023-05-18T03:06:41.233Z,10.35
2023-05-18T03:09:10.790Z,10.65
2023-05-18T03:11:40.022Z,10.27
2023-05-18T03:14:09.203Z,10.50
2023-05-18T03:16:39.769Z,11.05
2023-05-18T03:19:09.028Z,11.05
2023-05-18T03:21:38.373Z,12.07
2023-05-18T03:24:07.983Z,11.82
2023-05-18T03:26:37.200Z,11.18
2023-05-18T03:29:06.710Z,11.98
2023-05-18T03:31:35.984Z,11.35
2023-05-18T03:34:05.827Z,10.80
2023-05-18T03:36:36.584Z,10.85
2023-05-18T03:39:09.556Z,10.50
2023-05-18T03:41:38.845Z,10.73
2023-05-18T03:44:08.055Z,9.88
2023-05-18T03:46:37.538Z,10.20
2023-05-18T03:49:08.745Z,10.63
2023-05-18T03:51:38.084Z,10.40
2023-05-18T03:54:07.458Z,11.05
2023-05-18T03:56:36.769Z,10.75
2023-05-18T03:59:06.277Z,10.10
2023-05-18T04:01:35.608Z,10.95
2023-05-18T04:04:05.206Z,10.50
2023-05-18T04:06:36.376Z,9.73
2023-05-18T04:09:05.811Z,10.32
2023-05-18T04:11:35.154Z,10.95
2023-05-18T04:14:04.589Z,10.15
2023-05-18T04:16:33.896Z,13.68
2023-05-18T04:19:07.207Z,10.25
2023-05-18T04:21:37.509Z,9.13
2023-05-18T04:24:08.213Z,10.57
2023-05-18T04:26:37.576Z,9.77
2023-05-18T04:29:08.691Z,9.48
2023-05-18T04:31:38.947Z,11.30
2023-05-18T04:34:10.012Z,10.45
2023-05-18T04:36:40.799Z,10.02
2023-05-18T04:39:12.036Z,10.20
2023-05-18T04:41:43.115Z,10.13
2023-05-18T04:44:15.117Z,11.23
2023-05-18T04:46:44.478Z,10.30
2023-05-18T04:49:13.627Z,9.52
2023-05-18T04:51:44.361Z,9.68
2023-05-18T04:54:14.083Z,9.85
2023-05-18T04:56:43.665Z,10.43
2023-05-18T04:59:12.864Z,10.88
2023-05-18T05:01:42.120Z,9.40
2023-05-18T05:04:11.646Z,10.27
2023-05-18T05:06:40.972Z,9.70
2023-05-18T05:09:10.188Z,9.40
2023-05-18T05:11:39.455Z,9.30
2023-05-18T05:14:09.108Z,10.02
2023-05-18T05:16:38.671Z,11.25
2023-05-18T05:19:08.212Z,10.95
2023-05-18T05:21:37.622Z,10.95
2023-05-18T05:24:09.016Z,11.63
2023-05-18T05:26:38.276Z,10.75
2023-05-18T05:29:07.563Z,9.85
2023-05-18T05:31:36.946Z,10.10
2023-05-18T05:34:06.290Z,9.65
2023-05-18T05:36:35.386Z,9.68
2023-05-18T05:39:05.605Z,9.65
2023-05-18T05:41:34.740Z,10.25
2023-05-18T05:44:03.928Z,9.57
2023-05-18T05:46:33.095Z,10.13
2023-05-18T05:49:02.997Z,11.35
2023-05-18T05:51:32.089Z,10.50
2023-05-18T05:54:01.223Z,10.10
2023-05-18T05:56:30.301Z,10.32
2023-05-18T05:58:59.452Z,10.18
2023-05-18T06:01:28.708Z,10.45
2023-05-18T06:03:57.901Z,10.13
2023-05-18T06:06:27.034Z,10.52
2023-05-18T06:08:56.184Z,10.93
2023-05-18T06:11:25.318Z,10.18
2023-05-18T06:13:54.429Z,10.10
2023-05-18T06:16:23.763Z,10.18
2023-05-18T06:18:53.382Z,9.88
2023-05-18T06:21:22.556Z,9.93
2023-05-18T06:23:52.092Z,10.85
2023-05-18T06:26:21.189Z,9.10
2023-05-18T06:28:50.841Z,9.98
2023-05-18T06:31:20.136Z,10.05
2023-05-18T06:33:50.268Z,10.23
2023-05-18T06:36:19.440Z,10.82
2023-05-18T06:38:48.480Z,10.05
2023-05-18T06:41:17.717Z,9.45
2023-05-18T06:43:46.907Z,9.95
2023-05-18T06:46:25.851Z,10.35
2023-05-18T06:48:55.423Z,9.60
2023-05-18T06:51:24.918Z,10.20
2023-05-18T06:53:54.060Z,9.20
2023-05-18T06:56:23.333Z,9.57
2023-05-18T06:58:52.677Z,10.20
2023-05-18T07:01:21.858Z,9.88
2023-05-18T07:03:51.028Z,9.93
2023-05-18T07:06:20.268Z,9.98
2023-05-18T07:08:49.747Z,10.85
2023-05-18T07:11:19.005Z,9.32
2023-05-18T07:13:48.108Z,9.38
2023-05-18T07:16:17.442Z,10.00
2023-05-18T07:18:46.622Z,11.85
2023-05-18T07:21:15.792Z,10.25
2023-05-18T07:23:44.980Z,9.85
2023-05-18T07:26:14.329Z,10.30
2023-05-18T07:28:43.696Z,10.52
2023-05-18T07:31:13.037Z,9.32
2023-05-18T07:33:42.492Z,10.00
2023-05-18T07:36:11.873Z,10.38
2023-05-18T07:38:41.005Z,10.52
2023-05-18T07:41:10.187Z,10.05
2023-05-18T07:43:39.591Z,9.02
2023-05-18T07:46:08.737Z,9.60
2023-05-18T07:48:39.049Z,9.73
2023-05-18T07:51:09.844Z,9.88
2023-05-18T07:53:39.180Z,9.73
2023-05-18T07:56:09.608Z,9.40
2023-05-18T07:58:38.986Z,9.82
2023-05-18T08:01:08.105Z,10.25
2023-05-18T08:03:37.385Z,8.93
2023-05-18T08:06:06.689Z,10.38
2023-05-18T08:08:38.813Z,9.65
2023-05-18T08:11:08.115Z,9.77
2023-05-18T08:13:37.239Z,10.25
2023-05-18T08:16:11.921Z,10.38
2023-05-18T08:18:42.910Z,9.45
2023-05-18T08:21:12.198Z,9.77
2023-05-18T08:23:42.706Z,9.95
2023-05-18T08:26:14.215Z,9.52
2023-05-18T08:28:43.549Z,9.45
2023-05-18T08:31:13.350Z,9.23
2023-05-18T08:33:43.434Z,9.18
2023-05-18T08:36:12.705Z,9.18
2023-05-18T08:38:41.937Z,9.63
2023-05-18T08:42:05.606Z,8.85
2023-05-18T08:45:02.825Z,8.57
2023-05-18T08:50:06.819Z,9.00
2023-05-18T08:52:42.586Z,9.73
2023-05-18T08:55:14.138Z,10.40
2023-05-18T08:57:47.805Z,10.07
2023-05-18T09:00:18.214Z,8.98
2023-05-18T09:02:49.731Z,9.27
2023-05-18T09:05:21.968Z,8.85
2023-05-18T09:07:53.078Z,9.55
2023-05-18T09:10:24.063Z,9.45
2023-05-18T09:12:56.226Z,8.85
2023-05-18T09:15:27.084Z,8.73
2023-05-18T09:17:56.935Z,9.63
2023-05-18T09:20:30.151Z,11.85
2023-05-18T09:23:00.946Z,10.15
2023-05-18T09:25:36.229Z,10.00
2023-05-18T09:28:05.992Z,9.57
2023-05-18T09:30:45.076Z,9.52
2023-05-18T09:33:24.914Z,9.10
2023-05-18T09:35:54.704Z,9.13
2023-05-18T09:38:25.071Z,9.82
2023-05-18T09:40:54.359Z,10.38
2023-05-18T09:43:23.720Z,10.27
2023-05-18T09:45:52.888Z,10.40
2023-05-18T09:48:25.280Z,9.10
2023-05-18T09:50:54.813Z,8.30
2023-05-18T09:53:24.229Z,8.73
2023-05-18T09:55:53.398Z,9.77
2023-05-18T09:58:22.864Z,10.00
2023-05-18T10:00:57.850Z,9.88
2023-05-18T10:03:27.421Z,10.77
2023-05-18T10:05:56.611Z,10.20
2023-05-18T10:08:25.801Z,10.52
2023-05-18T10:10:55.059Z,9.57
2023-05-18T10:13:28.419Z,10.55
2023-05-18T10:16:00.882Z,10.90
2023-05-18T10:18:33.000Z,13.10
2023-05-18T10:21:05.672Z,11.07
2023-05-18T10:23:38.070Z,10.75
2023-05-18T10:26:10.693Z,12.20
2023-05-18T10:28:50.203Z,11.35
2023-05-18T10:31:19.901Z,11.65
2023-05-18T10:33:52.056Z,12.02
2023-05-18T10:36:23.447Z,12.80
2023-05-18T10:38:53.375Z,11.00
2023-05-18T10:41:24.470Z,10.93
2023-05-18T10:43:55.971Z,12.77
2023-05-18T10:46:27.724Z,11.75
2023-05-18T10:49:00.154Z,11.80
2023-05-18T10:51:32.771Z,12.25
2023-05-18T10:54:16.311Z,12.07
2023-05-18T10:56:54.448Z,12.55
2023-05-18T10:59:24.387Z,11.02
2023-05-18T11:01:57.255Z,11.10
2023-05-18T11:04:33.051Z,10.90
2023-05-18T11:07:03.364Z,10.68
2023-05-18T11:09:33.609Z,11.02
2023-05-18T11:12:02.970Z,10.60
2023-05-18T11:14:34.464Z,10.52
2023-05-18T11:17:31.134Z,11.18
2023-05-18T11:20:09.219Z,10.73
2023-05-18T11:23:04.523Z,11.23
2023-05-18T11:25:40.110Z,11.98
2023-05-18T11:28:15.032Z,11.48
2023-05-18T11:30:45.811Z,11.15
2023-05-18T11:33:31.951Z,14.00
2023-05-18T11:36:16.551Z,12.45
2023-05-18T11:39:12.305Z,12.50
2023-05-18T11:41:43.622Z,14.57
2023-05-18T11:44:21.540Z,12.73
2023-05-18T11:47:10.003Z,14.48
2023-05-18T11:49:50.606Z,13.85
2023-05-18T11:52:25.015Z,15.15
2023-05-18T11:55:01.784Z,21.27
2023-05-18T11:57:37.157Z,14.30
2023-05-18T12:00:16.195Z,14.52
2023-05-18T12:02:48.168Z,13.82
2023-05-18T12:05:18.441Z,11.90
2023-05-18T12:07:55.421Z,14.70
2023-05-18T12:10:25.183Z,14.27
2023-05-18T12:12:56.288Z,14.57
2023-05-18T12:15:26.420Z,13.30
2023-05-18T12:17:55.921Z,13.13
2023-05-18T12:20:29.487Z,13.93
2023-05-18T12:22:59.612Z,13.10
2023-05-18T12:25:30.110Z,14.05
2023-05-18T12:28:00.441Z,14.48
2023-05-18T12:30:36.372Z,14.25
2023-05-18T12:33:07.946Z,14.60
2023-05-18T12:35:37.351Z,14.48
2023-05-18T12:38:07.059Z,15.38
2023-05-18T12:40:49.811Z,15.30
2023-05-18T12:43:18.969Z,16.52
2023-05-18T12:45:48.260Z,14.90
2023-05-18T12:48:17.533Z,16.27
2023-05-18T12:50:54.225Z,15.32
2023-05-18T12:53:25.088Z,15.30
2023-05-18T12:56:02.859Z,16.63
2023-05-18T12:58:33.882Z,16.33
2023-05-18T13:01:10.949Z,14.88
2023-05-18T13:03:43.603Z,14.63
2023-05-18T13:06:12.877Z,15.77
2023-05-18T13:08:42.658Z,16.50
2023-05-18T13:11:14.834Z,15.60
2023-05-18T13:14:05.448Z,15.43
2023-05-18T13:16:46.378Z,16.33
2023-05-18T13:19:20.943Z,16.35
2023-05-18T13:21:58.404Z,15.23
2023-05-18T13:24:27.592Z,15.95
2023-05-18T13:26:56.852Z,15.48
2023-05-18T13:29:26.039Z,16.95
2023-05-18T13:31:55.144Z,15.10
2023-05-18T13:34:24.779Z,16.58
2023-05-18T13:36:54.008Z,16.00
2023-05-18T13:39:23.910Z,16.77
2023-05-18T13:41:53.112Z,17.42
2023-05-18T13:44:22.546Z,17.52
2023-05-18T13:46:51.734Z,16.40
2023-05-18T13:49:20.894Z,16.02
2023-05-18T13:51:50.172Z,18.77
2023-05-18T13:54:19.430Z,16.88
2023-05-18T13:56:50.094Z,16.30
2023-05-18T13:59:20.502Z,16.42
2023-05-18T14:01:50.666Z,16.13
2023-05-18T14:04:19.961Z,16.15
2023-05-18T14:06:49.258Z,20.73
2023-05-18T14:09:18.457Z,17.85
2023-05-18T14:11:47.707Z,16.80
2023-05-18T14:14:17.140Z,15.85
2023-05-18T14:16:46.611Z,16.35
2023-05-18T14:19:15.996Z,16.08
2023-05-18T14:21:45.261Z,16.35
2023-05-18T14:24:16.113Z,16.30
2023-05-18T14:26:45.373Z,17.38
2023-05-18T14:29:14.638Z,16.35
2023-05-18T14:31:43.840Z,15.60
2023-05-18T14:34:13.603Z,14.70
2023-05-18T14:36:42.893Z,15.32
2023-05-18T14:39:12.407Z,16.52
2023-05-18T14:41:41.642Z,16.65
2023-05-18T14:44:11.087Z,16.70
2023-05-18T14:46:41.564Z,16.42
2023-05-18T14:49:10.939Z,16.77
2023-05-18T14:51:40.493Z,17.02
2023-05-18T14:54:09.693Z,16.02
2023-05-18T14:56:38.992Z,15.63
2023-05-18T14:59:08.245Z,16.15
2023-05-18T15:01:37.467Z,16.77
2023-05-18T15:04:09.648Z,17.13
2023-05-18T15:06:39.138Z,18.67
2023-05-18T15:09:09.305Z,16.80
2023-05-18T15:11:38.545Z,18.58
2023-05-18T15:14:07.781Z,17.80
2023-05-18T15:16:37.364Z,17.05
2023-05-18T15:19:06.871Z,18.52
2023-05-18T15:21:36.330Z,17.08
2023-05-18T15:24:05.675Z,17.75
2023-05-18T15:26:34.984Z,18.20
2023-05-18T15:29:06.048Z,18.63
2023-05-18T15:31:37.822Z,17.42
2023-05-18T15:34:10.116Z,18.23
2023-05-18T15:36:39.638Z,16.95
2023-05-18T15:39:09.617Z,17.92
2023-05-18T15:41:38.913Z,17.33
2023-05-18T15:44:08.288Z,17.95
2023-05-18T15:46:49.089Z,17.70
2023-05-18T15:49:19.814Z,16.55
2023-05-18T15:51:49.253Z,17.30
2023-05-18T15:54:18.716Z,16.52
2023-05-18T15:56:47.978Z,17.25
2023-05-18T15:59:17.147Z,17.23
2023-05-18T16:01:46.558Z,17.15
2023-05-18T16:04:16.532Z,18.27
2023-05-18T16:06:45.809Z,17.75
2023-05-18T16:09:15.035Z,17.50
2023-05-18T16:11:44.437Z,17.30
2023-05-18T16:14:13.611Z,17.98
2023-05-18T16:16:42.925Z,18.85
2023-05-18T16:19:12.247Z,18.48
2023-05-18T16:21:41.515Z,18.60
2023-05-18T16:24:10.937Z,18.52
2023-05-18T16:26:40.353Z,18.33
2023-05-18T16:29:10.192Z,19.27
2023-05-18T16:31:39.494Z,19.63
2023-05-18T16:34:09.082Z,19.95
2023-05-18T16:36:39.334Z,18.77
2023-05-18T16:39:08.859Z,18.15
2023-05-18T16:41:37.988Z,19.27
2023-05-18T16:44:07.234Z,21.02
2023-05-18T16:46:36.616Z,20.27
2023-05-18T16:49:06.073Z,17.25
2023-05-18T16:51:35.197Z,19.65
2023-05-18T16:54:04.373Z,18.58
2023-05-18T16:56:34.051Z,18.75
2023-05-18T16:59:04.111Z,17.88
2023-05-18T17:01:33.664Z,18.17
2023-05-18T17:04:03.009Z,17.73
2023-05-18T17:06:32.260Z,18.00
2023-05-18T17:09:02.321Z,17.70
2023-05-18T17:11:32.729Z,18.65
2023-05-18T17:14:02.570Z,17.83
2023-05-18T17:16:36.273Z,18.02
2023-05-18T17:19:05.554Z,17.13
2023-05-18T17:21:34.982Z,17.08
2023-05-18T17:24:04.151Z,17.58
2023-05-18T17:26:34.255Z,18.05
2023-05-18T17:29:03.486Z,16.52
2023-05-18T17:31:32.701Z,17.40
2023-05-18T17:34:03.308Z,17.10
2023-05-18T17:36:32.645Z,17.23
2023-05-18T17:39:02.191Z,17.80
2023-05-18T17:41:33.193Z,17.92
2023-05-18T17:44:02.628Z,18.35
2023-05-18T17:46:32.361Z,18.33
2023-05-18T17:49:03.433Z,16.73
2023-05-18T17:51:32.581Z,16.98
2023-05-18T17:54:01.767Z,17.58
2023-05-18T17:56:32.548Z,16.58
2023-05-18T17:59:02.014Z,17.05
2023-05-18T18:01:31.603Z,17.42
2023-05-18T18:04:01.135Z,16.02
2023-05-18T18:06:30.473Z,16.95
2023-05-18T18:09:00.528Z,17.25
2023-05-18T18:11:30.163Z,16.63
2023-05-18T18:13:59.647Z,16.55
2023-05-18T18:16:28.937Z,17.02
2023-05-18T18:18:58.545Z,17.73
2023-05-18T18:21:27.771Z,16.25
2023-05-18T18:23:57.026Z,17.00
2023-05-18T18:26:26.884Z,16.75
2023-05-18T18:28:56.078Z,16.73
2023-05-18T18:31:25.327Z,17.65
2023-05-18T18:33:54.882Z,16.52
2023-05-18T18:36:26.273Z,17.02
2023-05-18T18:38:55.676Z,17.58
2023-05-18T18:41:25.154Z,18.08
2023-05-18T18:43:58.141Z,17.50
2023-05-18T18:46:27.414Z,17.33
2023-05-18T18:48:56.555Z,18.60
2023-05-18T18:51:25.676Z,18.67
2023-05-18T18:53:54.888Z,18.10
2023-05-18T18:56:24.448Z,18.30
2023-05-18T18:58:53.724Z,18.35
2023-05-18T19:01:22.936Z,18.55
2023-05-18T19:03:53.677Z,19.05
2023-05-18T19:06:24.145Z,19.55
2023-05-18T19:08:54.328Z,18.52
2023-05-18T19:11:24.886Z,18.35
2023-05-18T19:13:54.059Z,18.75
2023-05-18T19:16:23.539Z,19.45
2023-05-18T19:18:52.874Z,19.15
2023-05-18T19:21:22.589Z,20.17
2023-05-18T19:23:51.713Z,19.95
2023-05-18T19:26:20.838Z,19.40
2023-05-18T19:28:50.015Z,19.38
2023-05-18T19:31:19.207Z,18.63
2023-05-18T19:33:49.346Z,18.35
2023-05-18T19:36:19.937Z,19.40
2023-05-18T19:38:52.120Z,19.40
2023-05-18T19:41:25.015Z,17.85
2023-05-18T19:43:54.637Z,19.95
2023-05-18T19:46:24.159Z,19.17
2023-05-18T19:48:55.666Z,18.48
2023-05-18T19:51:25.578Z,19.02
2023-05-18T19:53:54.724Z,18.90
2023-05-18T19:56:27.149Z,19.35
2023-05-18T19:58:56.384Z,17.80
2023-05-18T20:01:26.687Z,17.80
2023-05-18T20:03:57.710Z,19.73
2023-05-18T20:06:28.966Z,18.50
2023-05-18T20:08:58.103Z,17.58
2023-05-18T20:11:27.315Z,18.50
2023-05-18T20:13:56.515Z,18.60
2023-05-18T20:16:27.473Z,18.48
2023-05-18T20:18:56.740Z,18.85
2023-05-18T20:21:25.811Z,18.30
2023-05-18T20:23:54.940Z,19.25
2023-05-18T20:26:24.497Z,18.50
2023-05-18T20:28:54.128Z,18.00
2023-05-18T20:31:23.313Z,19.20
2023-05-18T20:33:54.901Z,19.10
2023-05-18T20:36:25.004Z,18.77
2023-05-18T20:38:55.235Z,17.65
2023-05-18T20:41:24.422Z,17.85
2023-05-18T20:43:54.233Z,18.35
2023-05-18T20:46:25.687Z,17.70
2023-05-18T20:48:55.947Z,19.23
2023-05-18T20:51:25.640Z,17.85
2023-05-18T20:53:54.776Z,17.38
2023-05-18T20:56:25.097Z,18.30
2023-05-18T20:58:55.929Z,18.70
2023-05-18T21:01:29.619Z,18.77
2023-05-18T21:03:59.800Z,18.67
2023-05-18T21:06:29.114Z,19.05
2023-05-18T21:08:58.216Z,18.80
2023-05-18T21:11:27.546Z,18.27
2023-05-18T21:13:56.905Z,20.38
2023-05-18T21:16:26.086Z,19.92
2023-05-18T21:18:55.242Z,19.38
2023-05-18T21:21:24.625Z,17.90
2023-05-18T21:23:53.742Z,19.42
2023-05-18T21:26:23.427Z,19.20
2023-05-18T21:28:52.558Z,20.05
2023-05-18T21:31:21.694Z,17.98
2023-05-18T21:33:53.561Z,18.52
2023-05-18T21:36:34.900Z,18.35
2023-05-18T21:39:06.720Z,18.73
2023-05-18T21:41:39.621Z,18.35
2023-05-18T21:44:09.445Z,20.10
2023-05-18T21:46:39.214Z,19.70
2023-05-18T21:49:09.925Z,20.27
2023-05-18T21:51:39.045Z,18.23
2023-05-18T21:54:08.205Z,19.38
2023-05-18T21:56:37.868Z,19.40
2023-05-18T21:59:07.195Z,19.40
2023-05-18T22:01:36.432Z,18.52
2023-05-18T22:04:05.779Z,19.60
2023-05-18T22:06:34.912Z,19.20
2023-05-18T22:09:04.070Z,18.70
2023-05-18T22:11:33.254Z,18.92
2023-05-18T22:14:02.796Z,19.90
2023-05-18T22:16:33.128Z,20.52
2023-05-18T22:19:02.545Z,20.35
2023-05-18T22:21:32.082Z,20.08
2023-05-18T22:24:01.362Z,18.95
2023-05-18T22:26:30.513Z,19.30
2023-05-18T22:28:59.694Z,18.45
2023-05-18T22:31:28.938Z,18.15
2023-05-18T22:33:58.796Z,20.50
2023-05-18T22:36:30.377Z,18.60
2023-05-18T22:38:59.545Z,18.90
2023-05-18T22:41:28.774Z,19.40
2023-05-18T22:43:58.084Z,19.83
2023-05-18T22:46:27.364Z,19.45
2023-05-18T22:48:56.560Z,18.20
2023-05-18T22:51:27.269Z,18.90
2023-05-18T22:53:57.638Z,19.33
2023-05-18T22:56:28.431Z,19.05
2023-05-18T22:58:57.599Z,19.65
2023-05-18T23:01:26.811Z,18.42
2023-05-18T23:03:56.142Z,18.65
2023-05-18T23:06:25.349Z,19.85
2023-05-18T23:08:56.208Z,19.10
2023-05-18T23:11:26.418Z,22.10
2023-05-18T23:13:57.431Z,20.80
2023-05-18T23:16:27.563Z,52.97
2023-05-18T23:18:59.601Z,29.30
2023-05-18T23:21:29.139Z,26.98
2023-05-18T23:23:58.433Z,24.20
2023-05-18T23:26:27.680Z,34.08
2023-05-18T23:28:56.962Z,23.17
2023-05-18T23:31:27.005Z,20.23
2023-05-18T23:33:56.981Z,19.88
2023-05-18T23:36:31.446Z,20.35
2023-05-18T23:39:01.362Z,20.83
2023-05-18T23:41:37.117Z,20.95
2023-05-18T23:44:07.920Z,21.73
2023-05-18T23:46:37.846Z,22.17
2023-05-18T23:49:10.481Z,22.15
2023-05-18T23:51:41.774Z,21.90
2023-05-18T23:54:11.485Z,23.20
2023-05-18T23:56:41.512Z,22.80
2023-05-18T23:59:12.749Z,23.60
